Startpagina
METAR-TAF:

METAR-TAF

Vliegvelden :

Aeroporto Internacional de Foz do Iguaçu

Foz do Iguaçu, Paraná, Brazilië

breedte: 25-31S, lengte: 054-35W, hoogte: 180 m

Actueel weer

Dit bericht is 8 minuten geleden gemaakt, om 21:00 UTC
Wind 5 kt uit het zuiden
Temperatuur 30°C
Vochtigheid 52%
Druk 1007 hPa
Zicht 10 km of meer
geen wolken onder 1500 m en geen cumulonimbus

METAR: SBFI 242100Z 18005KT CAVOK 30/19 Q1007

Tijdstip: 18:08 (21:08 UTC)

Verwachting

Dit bericht is 6 uur en het 8 minuten geleden gemaakt, om 15:00 UTC
Verwachting geldig van 24 om 18 UTC tot 25 om 18 UTC
Wind 5 kt uit het zuidzuidoosten
Zicht 10 km of meer
geen wolken onder 1500 m en geen cumulonimbus

TAF: SBFI 241500Z 2418/2518 16005KT CAVOK TN19/2508Z TX30/2518Z RMK PDJ

Waarnemingen en weersverwachtingen van meer dan 4000 vliegvelden (METAR en TAF).

De beschikbare stations zijn de gele en rode punten op de kaart.

Ga met uw muis naar het station om de naam te zien.

Klik dan om waarnemingen en weersverwachtingen te zien.

kaart wijzigen: klik op de groene knoppen met een zwart kruis om in te zoomen, op de groene knop met een streepje om uit te zoomen of op de groene pijlen voor aangrenzende kaarten.


METAR-TAF: